sensor_id;sensor_type;location;lat;lon;timestamp;pressure;altitude;pressure_sealevel;temperature;humidity
35655;BME280;21773;50.010;19.972;2023-03-18T00:01:23;99018.78;;;7.78;37.08
35655;BME280;21773;50.010;19.972;2023-03-18T00:04:26;99009.28;;;7.75;37.44
35655;BME280;21773;50.010;19.972;2023-03-18T00:07:32;99004.31;;;7.72;37.38
35655;BME280;21773;50.010;19.972;2023-03-18T00:10:35;98998.28;;;7.64;37.45
35655;BME280;21773;50.010;19.972;2023-03-18T00:13:39;99000.97;;;7.57;38.01
35655;BME280;21773;50.010;19.972;2023-03-18T00:16:43;98997.22;;;7.52;37.78
35655;BME280;21773;50.010;19.972;2023-03-18T00:19:46;99001.75;;;7.51;37.49
35655;BME280;21773;50.010;19.972;2023-03-18T00:22:52;98990.59;;;7.48;37.86
35655;BME280;21773;50.010;19.972;2023-03-18T00:25:57;98987.22;;;7.32;37.99
35655;BME280;21773;50.010;19.972;2023-03-18T00:29:02;98985.38;;;7.33;38.38
35655;BME280;21773;50.010;19.972;2023-03-18T00:32:05;98996.72;;;7.35;37.95
35655;BME280;21773;50.010;19.972;2023-03-18T00:35:10;99001.66;;;7.38;38.03
35655;BME280;21773;50.010;19.972;2023-03-18T00:38:15;98992.59;;;7.39;37.78
35655;BME280;21773;50.010;19.972;2023-03-18T00:41:23;98995.28;;;7.39;38.05
35655;BME280;21773;50.010;19.972;2023-03-18T00:44:26;98988.47;;;7.36;37.88
35655;BME280;21773;50.010;19.972;2023-03-18T00:47:29;98981.03;;;7.32;38.03
35655;BME280;21773;50.010;19.972;2023-03-18T00:50:34;98980.56;;;7.28;38.21
35655;BME280;21773;50.010;19.972;2023-03-18T00:53:40;98980.34;;;7.23;38.30
35655;BME280;21773;50.010;19.972;2023-03-18T00:56:43;98966.72;;;7.18;38.24
35655;BME280;21773;50.010;19.972;2023-03-18T00:59:47;98969.72;;;7.09;38.99
35655;BME280;21773;50.010;19.972;2023-03-18T01:02:51;98973.88;;;7.11;38.79
35655;BME280;21773;50.010;19.972;2023-03-18T01:05:55;98968.69;;;7.03;39.09
35655;BME280;21773;50.010;19.972;2023-03-18T01:09:00;98970.78;;;7.08;38.70
35655;BME280;21773;50.010;19.972;2023-03-18T01:12:04;98976.94;;;7.02;38.68
35655;BME280;21773;50.010;19.972;2023-03-18T01:15:09;98952.13;;;6.93;38.77
35655;BME280;21773;50.010;19.972;2023-03-18T01:18:14;98972.63;;;7.07;38.71
35655;BME280;21773;50.010;19.972;2023-03-18T01:21:17;98948.75;;;7.12;38.42
35655;BME280;21773;50.010;19.972;2023-03-18T01:24:29;98959.25;;;7.14;38.36
35655;BME280;21773;50.010;19.972;2023-03-18T01:27:32;98960.66;;;7.10;38.71
35655;BME280;21773;50.010;19.972;2023-03-18T01:30:38;98954.94;;;7.13;38.29
35655;BME280;21773;50.010;19.972;2023-03-18T01:33:42;98954.47;;;7.03;39.05
35655;BME280;21773;50.010;19.972;2023-03-18T01:36:46;98952.81;;;7.02;38.77
35655;BME280;21773;50.010;19.972;2023-03-18T01:39:51;98947.63;;;7.00;38.89
35655;BME280;21773;50.010;19.972;2023-03-18T01:42:58;98952.13;;;6.93;39.07
35655;BME280;21773;50.010;19.972;2023-03-18T01:46:30;98945.91;;;6.86;39.13
35655;BME280;21773;50.010;19.972;2023-03-18T01:49:36;98944.44;;;6.83;39.21
35655;BME280;21773;50.010;19.972;2023-03-18T01:52:43;98945.47;;;6.82;39.20
35655;BME280;21773;50.010;19.972;2023-03-18T01:55:49;98938.63;;;6.80;39.20
35655;BME280;21773;50.010;19.972;2023-03-18T01:58:56;98940.69;;;6.78;39.11
35655;BME280;21773;50.010;19.972;2023-03-18T02:02:04;98938.16;;;6.70;39.41
35655;BME280;21773;50.010;19.972;2023-03-18T02:05:12;98941.91;;;6.75;39.13
35655;BME280;21773;50.010;19.972;2023-03-18T02:08:17;98937.53;;;6.68;39.18
35655;BME280;21773;50.010;19.972;2023-03-18T02:11:22;98946.00;;;6.71;39.12
35655;BME280;21773;50.010;19.972;2023-03-18T02:14:28;98927.59;;;6.62;39.05
35655;BME280;21773;50.010;19.972;2023-03-18T02:17:34;98937.97;;;6.71;39.18
35655;BME280;21773;50.010;19.972;2023-03-18T02:20:59;98934.22;;;6.66;39.11
35655;BME280;21773;50.010;19.972;2023-03-18T02:24:13;98936.06;;;6.65;39.33
35655;BME280;21773;50.010;19.972;2023-03-18T02:27:20;98931.94;;;6.63;39.19
35655;BME280;21773;50.010;19.972;2023-03-18T02:30:27;98931.75;;;6.64;39.41
35655;BME280;21773;50.010;19.972;2023-03-18T02:33:36;98930.69;;;6.65;39.29
35655;BME280;21773;50.010;19.972;2023-03-18T02:36:41;98930.69;;;6.65;39.17
35655;BME280;21773;50.010;19.972;2023-03-18T02:39:44;98930.63;;;6.52;39.52
35655;BME280;21773;50.010;19.972;2023-03-18T02:42:50;98928.63;;;6.33;39.94
35655;BME280;21773;50.010;19.972;2023-03-18T02:46:10;98931.72;;;6.36;39.62
35655;BME280;21773;50.010;19.972;2023-03-18T02:49:17;98935.41;;;6.35;39.87
35655;BME280;21773;50.010;19.972;2023-03-18T02:52:20;98929.88;;;6.37;39.72
35655;BME280;21773;50.010;19.972;2023-03-18T02:55:24;98930.31;;;6.40;39.71
35655;BME280;21773;50.010;19.972;2023-03-18T02:58:29;98927.00;;;6.38;39.82
35655;BME280;21773;50.010;19.972;2023-03-18T03:01:35;98927.00;;;6.38;39.60
35655;BME280;21773;50.010;19.972;2023-03-18T03:04:39;98921.84;;;6.37;39.66
35655;BME280;21773;50.010;19.972;2023-03-18T03:07:44;98919.13;;;6.30;39.63
35655;BME280;21773;50.010;19.972;2023-03-18T03:10:47;98929.28;;;6.41;39.95
35655;BME280;21773;50.010;19.972;2023-03-18T03:13:54;98927.25;;;6.43;39.49
35655;BME280;21773;50.010;19.972;2023-03-18T03:16:58;98931.13;;;6.41;39.67
35655;BME280;21773;50.010;19.972;2023-03-18T03:20:04;98919.13;;;6.30;39.48
35655;BME280;21773;50.010;19.972;2023-03-18T03:23:12;98924.28;;;6.32;39.74
35655;BME280;21773;50.010;19.972;2023-03-18T03:26:17;98930.06;;;6.35;39.75
35655;BME280;21773;50.010;19.972;2023-03-18T03:29:23;98924.16;;;6.40;39.52
35655;BME280;21773;50.010;19.972;2023-03-18T03:32:27;98923.56;;;6.44;39.63
35655;BME280;21773;50.010;19.972;2023-03-18T03:35:31;98930.19;;;6.48;39.69
35655;BME280;21773;50.010;19.972;2023-03-18T03:38:34;98921.13;;;6.49;39.69
35655;BME280;21773;50.010;19.972;2023-03-18T03:41:38;98912.28;;;6.49;40.13
35655;BME280;21773;50.010;19.972;2023-03-18T03:44:43;98922.41;;;6.53;39.92
35655;BME280;21773;50.010;19.972;2023-03-18T03:47:46;98909.97;;;6.46;39.65
35655;BME280;21773;50.010;19.972;2023-03-18T03:50:50;98922.97;;;6.49;40.01
35655;BME280;21773;50.010;19.972;2023-03-18T03:53:54;98923.09;;;6.41;40.09
35655;BME280;21773;50.010;19.972;2023-03-18T03:56:57;98922.09;;;6.42;40.02
35655;BME280;21773;50.010;19.972;2023-03-18T04:00:03;98920.88;;;6.44;40.22
35655;BME280;21773;50.010;19.972;2023-03-18T04:03:14;98919.47;;;6.48;39.83
35655;BME280;21773;50.010;19.972;2023-03-18T04:06:18;98927.28;;;6.50;39.87
35655;BME280;21773;50.010;19.972;2023-03-18T04:09:31;98929.16;;;6.49;40.12
35655;BME280;21773;50.010;19.972;2023-03-18T04:12:37;98927.28;;;6.50;39.74
35655;BME280;21773;50.010;19.972;2023-03-18T04:15:43;98926.91;;;6.53;39.65
35655;BME280;21773;50.010;19.972;2023-03-18T04:18:52;98920.72;;;6.52;40.01
35655;BME280;21773;50.010;19.972;2023-03-18T04:21:57;98910.88;;;6.32;40.27
35655;BME280;21773;50.010;19.972;2023-03-18T04:25:01;98927.78;;;6.32;40.39
35655;BME280;21773;50.010;19.972;2023-03-18T04:28:04;98935.19;;;6.30;40.90
35655;BME280;21773;50.010;19.972;2023-03-18T04:31:11;98923.97;;;6.20;40.50
35655;BME280;21773;50.010;19.972;2023-03-18T04:34:15;98940.34;;;6.32;40.88
35655;BME280;21773;50.010;19.972;2023-03-18T04:37:19;98944.69;;;6.33;40.43
35655;BME280;21773;50.010;19.972;2023-03-18T04:40:28;98948.19;;;6.33;40.63
35655;BME280;21773;50.010;19.972;2023-03-18T04:43:33;98944.50;;;6.34;40.73
35655;BME280;21773;50.010;19.972;2023-03-18T04:46:39;98951.47;;;6.35;40.65
35655;BME280;21773;50.010;19.972;2023-03-18T04:49:43;98950.69;;;6.35;40.69
35655;BME280;21773;50.010;19.972;2023-03-18T04:52:48;98956.63;;;6.30;40.75
35655;BME280;21773;50.010;19.972;2023-03-18T04:55:57;98952.88;;;6.31;40.77
35655;BME280;21773;50.010;19.972;2023-03-18T04:59:09;98956.84;;;6.35;41.14
35655;BME280;21773;50.010;19.972;2023-03-18T05:02:14;98953.78;;;6.38;41.10
35655;BME280;21773;50.010;19.972;2023-03-18T05:05:18;98953.22;;;6.43;41.03
35655;BME280;21773;50.010;19.972;2023-03-18T05:08:24;98950.97;;;6.46;41.18
35655;BME280;21773;50.010;19.972;2023-03-18T05:11:28;98945.84;;;6.51;41.22
35655;BME280;21773;50.010;19.972;2023-03-18T05:14:36;98944.91;;;6.59;41.18
35655;BME280;21773;50.010;19.972;2023-03-18T05:17:41;98946.75;;;6.59;41.12
35655;BME280;21773;50.010;19.972;2023-03-18T05:20:45;98947.00;;;6.70;41.08
35655;BME280;21773;50.010;19.972;2023-03-18T05:23:51;98960.53;;;6.83;40.87
35655;BME280;21773;50.010;19.972;2023-03-18T05:26:54;98957.28;;;6.94;41.04
35655;BME280;21773;50.010;19.972;2023-03-18T05:30:06;98960.66;;;7.10;40.69
35655;BME280;21773;50.010;19.972;2023-03-18T05:33:18;98970.22;;;7.19;40.34
35655;BME280;21773;50.010;19.972;2023-03-18T05:36:29;98963.91;;;7.33;40.04
35655;BME280;21773;50.010;19.972;2023-03-18T05:39:37;98967.03;;;7.43;40.12
35655;BME280;21773;50.010;19.972;2023-03-18T05:42:45;98968.16;;;7.62;39.73
35655;BME280;21773;50.010;19.972;2023-03-18T05:46:06;98966.94;;;7.77;39.55
35655;BME280;21773;50.010;19.972;2023-03-18T05:49:34;98961.63;;;7.97;39.21
35655;BME280;21773;50.010;19.972;2023-03-18T05:52:53;98959.84;;;8.11;39.08
35655;BME280;21773;50.010;19.972;2023-03-18T05:55:58;98953.00;;;8.21;38.74
35655;BME280;21773;50.010;19.972;2023-03-18T05:59:03;98959.91;;;8.31;38.44
35655;BME280;21773;50.010;19.972;2023-03-18T06:02:18;98956.56;;;8.42;38.16
35655;BME280;21773;50.010;19.972;2023-03-18T06:05:24;98954.50;;;8.50;38.04
35655;BME280;21773;50.010;19.972;2023-03-18T06:08:27;98956.38;;;8.56;37.78
35655;BME280;21773;50.010;19.972;2023-03-18T06:11:31;98957.00;;;8.52;37.52
35655;BME280;21773;50.010;19.972;2023-03-18T06:14:35;98955.13;;;8.65;37.33
35655;BME280;21773;50.010;19.972;2023-03-18T06:17:40;98960.28;;;8.67;37.13
35655;BME280;21773;50.010;19.972;2023-03-18T06:20:44;98965.84;;;8.92;36.69
35655;BME280;21773;50.010;19.972;2023-03-18T06:23:49;98966.84;;;9.10;37.09
35655;BME280;21773;50.010;19.972;2023-03-18T06:26:53;98970.91;;;9.39;36.52
35655;BME280;21773;50.010;19.972;2023-03-18T06:29:56;98965.81;;;9.69;36.14
35655;BME280;21773;50.010;19.972;2023-03-18T06:33:04;98961.53;;;9.99;35.43
35655;BME280;21773;50.010;19.972;2023-03-18T06:36:09;98964.44;;;10.36;35.13
35655;BME280;21773;50.010;19.972;2023-03-18T06:39:18;98980.94;;;10.71;34.82
35655;BME280;21773;50.010;19.972;2023-03-18T06:42:23;98982.72;;;11.08;34.25
35655;BME280;21773;50.010;19.972;2023-03-18T06:45:39;98984.69;;;11.56;33.69
35655;BME280;21773;50.010;19.972;2023-03-18T06:48:43;98980.50;;;12.08;32.88
35655;BME280;21773;50.010;19.972;2023-03-18T06:51:53;98982.50;;;12.42;31.71
35655;BME280;21773;50.010;19.972;2023-03-18T06:54:58;98980.13;;;12.87;31.26
35655;BME280;21773;50.010;19.972;2023-03-18T06:58:01;98980.38;;;13.32;30.78
35655;BME280;21773;50.010;19.972;2023-03-18T07:01:14;98980.44;;;13.72;30.39
35655;BME280;21773;50.010;19.972;2023-03-18T07:04:20;98976.69;;;14.02;29.44
35655;BME280;21773;50.010;19.972;2023-03-18T07:07:27;98974.88;;;14.36;29.18
35655;BME280;21773;50.010;19.972;2023-03-18T07:10:31;98980.88;;;14.83;28.58
35655;BME280;21773;50.010;19.972;2023-03-18T07:13:43;98963.69;;;15.32;28.11
35655;BME280;21773;50.010;19.972;2023-03-18T07:16:53;98993.66;;;15.97;27.15
35655;BME280;21773;50.010;19.972;2023-03-18T07:19:57;98995.31;;;16.52;26.71
35655;BME280;21773;50.010;19.972;2023-03-18T07:23:02;98993.53;;;16.89;25.84
35655;BME280;21773;50.010;19.972;2023-03-18T07:26:06;98976.66;;;17.29;25.81
35655;BME280;21773;50.010;19.972;2023-03-18T07:29:09;98990.03;;;17.73;24.92
35655;BME280;21773;50.010;19.972;2023-03-18T07:32:13;98993.19;;;18.12;24.67
35655;BME280;21773;50.010;19.972;2023-03-18T07:35:16;98992.44;;;18.42;23.62
35655;BME280;21773;50.010;19.972;2023-03-18T07:38:21;98996.34;;;18.71;23.57
35655;BME280;21773;50.010;19.972;2023-03-18T07:41:25;98989.25;;;19.06;23.07
35655;BME280;21773;50.010;19.972;2023-03-18T07:44:28;99000.69;;;19.33;22.78
35655;BME280;21773;50.010;19.972;2023-03-18T07:47:32;98999.84;;;19.63;22.17
35655;BME280;21773;50.010;19.972;2023-03-18T07:50:35;99004.91;;;19.95;21.82
35655;BME280;21773;50.010;19.972;2023-03-18T07:53:40;99011.31;;;20.39;21.66
35655;BME280;21773;50.010;19.972;2023-03-18T07:56:44;99012.81;;;20.60;21.36
35655;BME280;21773;50.010;19.972;2023-03-18T07:59:47;98998.22;;;20.75;21.17
35655;BME280;21773;50.010;19.972;2023-03-18T08:02:51;98997.22;;;20.95;20.71
35655;BME280;21773;50.010;19.972;2023-03-18T08:05:55;99002.13;;;21.32;20.81
35655;BME280;21773;50.010;19.972;2023-03-18T08:09:00;99007.31;;;21.62;20.43
35655;BME280;21773;50.010;19.972;2023-03-18T08:12:05;99012.53;;;21.87;20.02
35655;BME280;21773;50.010;19.972;2023-03-18T08:15:09;99010.97;;;22.05;19.95
35655;BME280;21773;50.010;19.972;2023-03-18T08:18:12;99008.41;;;22.32;19.69
35655;BME280;21773;50.010;19.972;2023-03-18T08:21:16;99005.53;;;22.61;19.15
35655;BME280;21773;50.010;19.972;2023-03-18T08:24:21;99008.56;;;22.97;19.15
35655;BME280;21773;50.010;19.972;2023-03-18T08:27:25;99016.66;;;23.07;19.20
35655;BME280;21773;50.010;19.972;2023-03-18T08:30:28;99014.63;;;23.13;18.59
35655;BME280;21773;50.010;19.972;2023-03-18T08:33:32;99019.75;;;23.19;18.75
35655;BME280;21773;50.010;19.972;2023-03-18T08:36:35;99003.47;;;23.23;18.06
35655;BME280;21773;50.010;19.972;2023-03-18T08:39:40;99021.25;;;23.44;18.78
35655;BME280;21773;50.010;19.972;2023-03-18T08:42:45;99010.63;;;23.70;18.39
35655;BME280;21773;50.010;19.972;2023-03-18T08:45:51;99013.59;;;24.01;17.91
35655;BME280;21773;50.010;19.972;2023-03-18T08:48:54;99018.09;;;24.38;17.74
35655;BME280;21773;50.010;19.972;2023-03-18T08:51:58;99020.94;;;24.82;17.38
35655;BME280;21773;50.010;19.972;2023-03-18T08:55:03;99016.38;;;25.22;16.94
35655;BME280;21773;50.010;19.972;2023-03-18T08:58:09;99015.84;;;25.42;16.75
35655;BME280;21773;50.010;19.972;2023-03-18T09:01:14;99009.72;;;25.76;16.52
35655;BME280;21773;50.010;19.972;2023-03-18T09:04:23;99010.34;;;26.04;15.97
35655;BME280;21773;50.010;19.972;2023-03-18T09:07:27;99005.84;;;26.25;16.11
35655;BME280;21773;50.010;19.972;2023-03-18T09:10:33;99013.06;;;26.61;15.76
35655;BME280;21773;50.010;19.972;2023-03-18T09:13:36;98998.59;;;26.81;15.50
35655;BME280;21773;50.010;19.972;2023-03-18T09:16:40;99008.41;;;26.96;15.75
35655;BME280;21773;50.010;19.972;2023-03-18T09:19:43;99001.19;;;27.29;15.28
35655;BME280;21773;50.010;19.972;2023-03-18T09:22:47;98997.19;;;26.92;14.98
35655;BME280;21773;50.010;19.972;2023-03-18T09:25:53;99001.38;;;26.72;15.20
35655;BME280;21773;50.010;19.972;2023-03-18T09:28:58;99002.53;;;26.89;15.15
35655;BME280;21773;50.010;19.972;2023-03-18T09:32:01;99001.22;;;27.03;15.16
35655;BME280;21773;50.010;19.972;2023-03-18T09:35:05;98991.63;;;27.01;15.21
35655;BME280;21773;50.010;19.972;2023-03-18T09:38:15;98997.50;;;26.91;15.15
35655;BME280;21773;50.010;19.972;2023-03-18T09:41:28;98992.44;;;27.10;14.81
35655;BME280;21773;50.010;19.972;2023-03-18T09:44:38;98978.50;;;27.53;15.31
35655;BME280;21773;50.010;19.972;2023-03-18T09:48:00;98990.03;;;28.01;14.64
35655;BME280;21773;50.010;19.972;2023-03-18T09:51:17;98995.34;;;28.44;13.93
35655;BME280;21773;50.010;19.972;2023-03-18T09:54:31;98985.03;;;28.54;13.12
35655;BME280;21773;50.010;19.972;2023-03-18T09:57:41;98985.53;;;28.26;13.55
35655;BME280;21773;50.010;19.972;2023-03-18T10:00:47;98978.88;;;27.89;12.82
35655;BME280;21773;50.010;19.972;2023-03-18T10:03:57;98987.09;;;27.69;13.32
35655;BME280;21773;50.010;19.972;2023-03-18T10:07:16;98978.50;;;27.91;13.68
35655;BME280;21773;50.010;19.972;2023-03-18T10:10:24;98973.88;;;28.12;13.52
35655;BME280;21773;50.010;19.972;2023-03-18T10:13:34;98975.56;;;28.25;13.36
35655;BME280;21773;50.010;19.972;2023-03-18T10:16:50;98975.69;;;28.79;13.56
35655;BME280;21773;50.010;19.972;2023-03-18T10:19:58;98975.16;;;28.85;12.66
35655;BME280;21773;50.010;19.972;2023-03-18T10:23:11;98967.84;;;29.14;12.97
35655;BME280;21773;50.010;19.972;2023-03-18T10:26:27;98954.59;;;29.64;12.77
35655;BME280;21773;50.010;19.972;2023-03-18T10:29:39;98954.25;;;29.78;12.38
35655;BME280;21773;50.010;19.972;2023-03-18T10:32:52;98946.81;;;29.82;12.12
35655;BME280;21773;50.010;19.972;2023-03-18T10:36:04;98952.75;;;29.81;12.12
35655;BME280;21773;50.010;19.972;2023-03-18T10:39:12;98949.09;;;29.32;12.28
35655;BME280;21773;50.010;19.972;2023-03-18T10:42:19;98943.09;;;29.42;12.88
35655;BME280;21773;50.010;19.972;2023-03-18T10:45:26;98957.13;;;29.57;12.33
35655;BME280;21773;50.010;19.972;2023-03-18T10:48:32;98946.38;;;29.23;12.42
35655;BME280;21773;50.010;19.972;2023-03-18T10:51:42;98943.09;;;29.09;12.83
35655;BME280;21773;50.010;19.972;2023-03-18T10:54:48;98940.41;;;29.00;12.08
35655;BME280;21773;50.010;19.972;2023-03-18T10:57:53;98935.78;;;29.04;12.64
35655;BME280;21773;50.010;19.972;2023-03-18T11:00:58;98941.28;;;29.25;12.44
35655;BME280;21773;50.010;19.972;2023-03-18T11:04:04;98939.50;;;29.41;12.16
35655;BME280;21773;50.010;19.972;2023-03-18T11:07:14;98936.81;;;29.33;11.42
35655;BME280;21773;50.010;19.972;2023-03-18T11:10:24;98931.13;;;29.29;12.35
35655;BME280;21773;50.010;19.972;2023-03-18T11:13:28;98923.69;;;29.66;11.72
35655;BME280;21773;50.010;19.972;2023-03-18T11:16:39;98919.53;;;30.08;11.41
35655;BME280;21773;50.010;19.972;2023-03-18T11:19:45;98917.34;;;29.90;11.53
35655;BME280;21773;50.010;19.972;2023-03-18T11:22:51;98919.88;;;29.70;11.63
35655;BME280;21773;50.010;19.972;2023-03-18T11:26:01;98919.28;;;29.77;12.28
35655;BME280;21773;50.010;19.972;2023-03-18T11:29:10;98915.66;;;29.52;11.36
35655;BME280;21773;50.010;19.972;2023-03-18T11:32:23;98915.66;;;29.40;12.19
35655;BME280;21773;50.010;19.972;2023-03-18T11:35:32;98908.00;;;29.37;12.13
35655;BME280;21773;50.010;19.972;2023-03-18T11:38:38;98895.78;;;29.50;11.64
35655;BME280;21773;50.010;19.972;2023-03-18T11:41:43;98893.34;;;29.49;11.83
35655;BME280;21773;50.010;19.972;2023-03-18T11:44:47;98897.88;;;29.65;11.83
35655;BME280;21773;50.010;19.972;2023-03-18T11:47:52;98890.00;;;29.92;11.79
35655;BME280;21773;50.010;19.972;2023-03-18T11:51:16;98884.91;;;29.94;11.15
35655;BME280;21773;50.010;19.972;2023-03-18T12:01:50;98877.34;;;30.59;12.13
35655;BME280;21773;50.010;19.972;2023-03-18T12:05:18;98881.75;;;30.87;11.66
35655;BME280;21773;50.010;19.972;2023-03-18T12:08:35;98868.13;;;31.14;11.24
35655;BME280;21773;50.010;19.972;2023-03-18T12:11:55;98856.03;;;30.94;11.04
35655;BME280;21773;50.010;19.972;2023-03-18T12:15:10;98873.00;;;30.89;11.30
35655;BME280;21773;50.010;19.972;2023-03-18T12:18:31;98859.53;;;31.03;11.45
35655;BME280;21773;50.010;19.972;2023-03-18T12:22:01;98851.56;;;30.89;11.37
35655;BME280;21773;50.010;19.972;2023-03-18T12:25:34;98851.38;;;30.54;11.63
35655;BME280;21773;50.010;19.972;2023-03-18T12:28:49;98848.66;;;30.30;11.75
35655;BME280;21773;50.010;19.972;2023-03-18T12:32:06;98848.44;;;29.71;11.68
35655;BME280;21773;50.010;19.972;2023-03-18T12:35:25;98848.56;;;29.50;12.28
35655;BME280;21773;50.010;19.972;2023-03-18T12:38:59;98850.50;;;29.62;12.88
35655;BME280;21773;50.010;19.972;2023-03-18T12:42:09;98840.28;;;29.29;11.81
35655;BME280;21773;50.010;19.972;2023-03-18T12:45:17;98845.97;;;28.76;12.27
35655;BME280;21773;50.010;19.972;2023-03-18T12:48:24;98842.09;;;28.35;13.04
35655;BME280;21773;50.010;19.972;2023-03-18T12:51:49;98838.06;;;28.12;13.28
35655;BME280;21773;50.010;19.972;2023-03-18T12:55:00;98845.03;;;28.18;13.87
35655;BME280;21773;50.010;19.972;2023-03-18T12:58:06;98825.88;;;28.25;13.48
35655;BME280;21773;50.010;19.972;2023-03-18T13:01:16;98812.75;;;28.34;13.30
35655;BME280;21773;50.010;19.972;2023-03-18T13:04:25;98827.69;;;28.42;13.22
35655;BME280;21773;50.010;19.972;2023-03-18T13:07:38;98821.66;;;28.40;13.34
35655;BME280;21773;50.010;19.972;2023-03-18T13:10:53;98817.91;;;28.24;13.57
35655;BME280;21773;50.010;19.972;2023-03-18T13:14:04;98819.56;;;27.75;13.62
35655;BME280;21773;50.010;19.972;2023-03-18T13:17:10;98813.09;;;27.33;14.45
35655;BME280;21773;50.010;19.972;2023-03-18T13:20:20;98804.97;;;27.28;13.66
35655;BME280;21773;50.010;19.972;2023-03-18T13:23:43;98811.34;;;26.64;13.53
35655;BME280;21773;50.010;19.972;2023-03-18T13:27:07;98810.41;;;26.52;14.24
35655;BME280;21773;50.010;19.972;2023-03-18T13:30:25;98811.53;;;26.59;13.63
35655;BME280;21773;50.010;19.972;2023-03-18T13:33:42;98796.53;;;26.78;14.07
35655;BME280;21773;50.010;19.972;2023-03-18T13:37:04;98801.41;;;26.81;14.49
35655;BME280;21773;50.010;19.972;2023-03-18T13:43:46;98799.72;;;25.99;13.55
35655;BME280;21773;50.010;19.972;2023-03-18T13:46:56;98792.22;;;25.65;14.20
35655;BME280;21773;50.010;19.972;2023-03-18T13:50:04;98791.72;;;25.15;14.38
35655;BME280;21773;50.010;19.972;2023-03-18T13:53:20;98799.13;;;24.97;14.98
35655;BME280;21773;50.010;19.972;2023-03-18T13:56:26;98788.25;;;24.92;14.60
35655;BME280;21773;50.010;19.972;2023-03-18T13:59:47;98786.47;;;24.74;14.67
35655;BME280;21773;50.010;19.972;2023-03-18T14:03:15;98784.09;;;24.50;14.88
35655;BME280;21773;50.010;19.972;2023-03-18T14:06:22;98788.78;;;23.69;15.43
35655;BME280;21773;50.010;19.972;2023-03-18T14:09:34;98783.38;;;24.00;15.95
35655;BME280;21773;50.010;19.972;2023-03-18T14:12:48;98778.59;;;24.28;15.21
35655;BME280;21773;50.010;19.972;2023-03-18T14:15:54;98771.06;;;24.42;15.00
35655;BME280;21773;50.010;19.972;2023-03-18T14:19:00;98768.44;;;24.37;15.31
35655;BME280;21773;50.010;19.972;2023-03-18T14:22:06;98769.47;;;24.05;15.02
35655;BME280;21773;50.010;19.972;2023-03-18T14:25:22;98772.91;;;23.39;15.35
35655;BME280;21773;50.010;19.972;2023-03-18T14:28:41;98769.28;;;23.16;15.35
35655;BME280;21773;50.010;19.972;2023-03-18T14:31:55;98767.03;;;23.18;15.75
35655;BME280;21773;50.010;19.972;2023-03-18T14:35:16;98762.63;;;23.44;15.65
35655;BME280;21773;50.010;19.972;2023-03-18T14:38:32;98761.50;;;23.81;15.60
35655;BME280;21773;50.010;19.972;2023-03-18T14:41:41;98747.44;;;24.05;14.91
35655;BME280;21773;50.010;19.972;2023-03-18T14:44:51;98745.81;;;23.82;15.50
35655;BME280;21773;50.010;19.972;2023-03-18T14:47:57;98757.34;;;23.84;15.97
35655;BME280;21773;50.010;19.972;2023-03-18T14:51:05;98751.78;;;23.97;15.51
35655;BME280;21773;50.010;19.972;2023-03-18T14:54:17;98750.41;;;24.08;15.88
35655;BME280;21773;50.010;19.972;2023-03-18T14:57:23;98752.44;;;24.16;16.31
35655;BME280;21773;50.010;19.972;2023-03-18T15:00:30;98743.56;;;24.06;15.76
35655;BME280;21773;50.010;19.972;2023-03-18T15:03:38;98749.44;;;23.91;16.35
35655;BME280;21773;50.010;19.972;2023-03-18T15:06:44;98753.06;;;23.78;16.38
35655;BME280;21773;50.010;19.972;2023-03-18T15:09:48;98748.69;;;23.77;16.76
35655;BME280;21773;50.010;19.972;2023-03-18T15:13:02;98756.47;;;23.61;16.93
35655;BME280;21773;50.010;19.972;2023-03-18T15:16:10;98754.16;;;23.54;17.31
35655;BME280;21773;50.010;19.972;2023-03-18T15:19:17;98753.66;;;23.39;17.58
35655;BME280;21773;50.010;19.972;2023-03-18T15:22:23;98755.00;;;23.27;17.45
35655;BME280;21773;50.010;19.972;2023-03-18T15:25:29;98755.75;;;23.06;17.20
35655;BME280;21773;50.010;19.972;2023-03-18T15:28:33;98750.03;;;22.75;17.64
35655;BME280;21773;50.010;19.972;2023-03-18T15:31:41;98749.66;;;22.63;18.30
35655;BME280;21773;50.010;19.972;2023-03-18T15:34:51;98749.66;;;22.49;17.76
35655;BME280;21773;50.010;19.972;2023-03-18T15:38:10;98753.38;;;22.26;17.93
35655;BME280;21773;50.010;19.972;2023-03-18T15:41:17;98748.88;;;22.16;18.35
35655;BME280;21773;50.010;19.972;2023-03-18T15:44:24;98750.59;;;22.12;18.17
35655;BME280;21773;50.010;19.972;2023-03-18T15:47:31;98752.47;;;21.98;18.39
35655;BME280;21773;50.010;19.972;2023-03-18T15:50:36;98742.72;;;21.87;18.27
35655;BME280;21773;50.010;19.972;2023-03-18T15:53:42;98746.59;;;21.67;18.37
35655;BME280;21773;50.010;19.972;2023-03-18T15:56:49;98760.88;;;21.45;18.72
35655;BME280;21773;50.010;19.972;2023-03-18T15:59:56;98756.44;;;21.31;18.84
35655;BME280;21773;50.010;19.972;2023-03-18T16:02:59;98756.50;;;21.02;19.05
35655;BME280;21773;50.010;19.972;2023-03-18T16:06:04;98762.97;;;20.87;19.59
35655;BME280;21773;50.010;19.972;2023-03-18T16:09:19;98771.84;;;20.79;19.42
35655;BME280;21773;50.010;19.972;2023-03-18T16:12:24;98747.50;;;20.49;20.09
35655;BME280;21773;50.010;19.972;2023-03-18T16:15:28;98770.81;;;20.46;19.67
35655;BME280;21773;50.010;19.972;2023-03-18T16:18:32;98760.06;;;20.21;20.73
35655;BME280;21773;50.010;19.972;2023-03-18T16:21:37;98771.69;;;20.08;20.35
35655;BME280;21773;50.010;19.972;2023-03-18T16:24:41;98778.34;;;19.97;20.94
35655;BME280;21773;50.010;19.972;2023-03-18T16:27:46;98776.56;;;19.77;20.94
35655;BME280;21773;50.010;19.972;2023-03-18T16:30:51;98762.22;;;19.51;21.03
35655;BME280;21773;50.010;19.972;2023-03-18T16:33:57;98786.88;;;19.46;21.12
35655;BME280;21773;50.010;19.972;2023-03-18T16:37:01;98787.19;;;19.34;21.15
35655;BME280;21773;50.010;19.972;2023-03-18T16:43:18;98780.22;;;19.03;21.33